createdAt,value
2018-03-16T00:00:46.791Z,4.84
2018-03-16T00:01:46.943Z,4.70
2018-03-16T00:02:47.087Z,4.72
2018-03-16T00:03:47.236Z,4.76
2018-03-16T00:04:47.396Z,4.73
2018-03-16T00:05:47.532Z,4.75
2018-03-16T00:06:47.683Z,4.65
2018-03-16T00:07:47.834Z,4.70
2018-03-16T00:08:47.978Z,4.65
2018-03-16T00:09:48.128Z,4.69
2018-03-16T00:10:48.279Z,4.54
2018-03-16T00:11:48.426Z,4.62
2018-03-16T00:12:48.574Z,4.62
2018-03-16T00:13:48.720Z,4.55
2018-03-16T00:14:48.871Z,4.51
2018-03-16T00:15:49.018Z,4.64
2018-03-16T00:16:49.167Z,4.52
2018-03-16T00:17:49.314Z,4.55
2018-03-16T00:18:49.465Z,4.58
2018-03-16T00:19:49.613Z,4.55
2018-03-16T00:20:49.763Z,4.52
2018-03-16T00:21:49.910Z,4.57
2018-03-16T00:22:50.057Z,4.42
2018-03-16T00:23:50.210Z,4.40
2018-03-16T00:24:50.362Z,4.36
2018-03-16T00:25:50.496Z,4.40
2018-03-16T00:26:50.643Z,4.40
2018-03-16T00:27:50.792Z,4.42
2018-03-16T00:28:50.940Z,4.39
2018-03-16T00:29:51.088Z,4.46
2018-03-16T00:30:51.234Z,4.47
2018-03-16T00:31:51.384Z,4.37
2018-03-16T00:32:51.534Z,4.37
2018-03-16T00:33:51.678Z,4.39
2018-03-16T00:34:51.826Z,4.42
2018-03-16T00:35:51.996Z,4.44
2018-03-16T00:36:52.121Z,4.40
2018-03-16T00:37:52.269Z,4.40
2018-03-16T00:38:52.419Z,4.34
2018-03-16T00:39:52.567Z,4.24
2018-03-16T00:40:52.716Z,4.28
2018-03-16T00:41:52.866Z,4.25
2018-03-16T00:42:53.014Z,4.33
2018-03-16T00:43:53.161Z,4.28
2018-03-16T00:44:53.306Z,4.22
2018-03-16T00:45:53.454Z,4.14
2018-03-16T00:46:53.602Z,4.12
2018-03-16T00:47:53.749Z,4.15
2018-03-16T00:48:53.903Z,4.12
2018-03-16T00:49:54.044Z,4.18
2018-03-16T00:50:54.192Z,4.15
2018-03-16T00:51:54.336Z,4.25
2018-03-16T00:52:55.161Z,4.25
2018-03-16T00:53:54.592Z,4.40
2018-03-16T00:54:54.738Z,4.33
2018-03-16T00:55:54.885Z,4.33
2018-03-16T00:56:55.033Z,4.40
2018-03-16T00:57:55.181Z,4.25
2018-03-16T00:58:55.334Z,4.25
2018-03-16T00:59:55.477Z,4.26
2018-03-16T01:00:55.627Z,4.22
2018-03-16T01:01:55.774Z,4.40
2018-03-16T01:02:55.920Z,4.26
2018-03-16T01:03:56.071Z,4.26
2018-03-16T01:04:56.219Z,4.18
2018-03-16T01:05:56.370Z,4.24
2018-03-16T01:06:56.520Z,4.08
2018-03-16T01:07:56.666Z,4.18
2018-03-16T01:08:56.815Z,4.14
2018-03-16T01:09:56.964Z,4.12
2018-03-16T01:10:57.110Z,4.01
2018-03-16T01:11:57.260Z,3.97
2018-03-16T01:12:57.407Z,3.94
2018-03-16T01:13:57.554Z,3.90
2018-03-16T01:14:57.701Z,4.00
2018-03-16T01:15:57.847Z,3.89
2018-03-16T01:16:57.997Z,3.94
2018-03-16T01:17:58.144Z,3.96
2018-03-16T01:18:58.292Z,3.90
2018-03-16T01:19:58.442Z,3.89
2018-03-16T01:20:58.587Z,3.92
2018-03-16T01:21:58.735Z,3.90
2018-03-16T01:22:58.880Z,3.97
2018-03-16T01:23:59.027Z,3.83
2018-03-16T01:24:59.176Z,3.86
2018-03-16T01:25:59.324Z,3.86
2018-03-16T01:26:59.472Z,3.85
2018-03-16T01:27:59.621Z,3.79
2018-03-16T01:28:59.768Z,3.80
2018-03-16T01:29:59.916Z,3.88
2018-03-16T01:31:00.066Z,3.83
2018-03-16T01:32:00.210Z,3.80
2018-03-16T01:33:00.359Z,3.94
2018-03-16T01:34:00.507Z,3.82
2018-03-16T01:35:00.654Z,3.71
2018-03-16T01:36:00.802Z,3.78
2018-03-16T01:37:00.951Z,3.76
2018-03-16T01:38:01.096Z,3.68
2018-03-16T01:39:01.242Z,3.68
2018-03-16T01:40:01.391Z,3.72
2018-03-16T01:41:01.539Z,3.68
2018-03-16T01:42:01.685Z,3.68
2018-03-16T01:43:01.834Z,3.72
2018-03-16T01:44:01.984Z,3.58
2018-03-16T01:45:02.128Z,3.67
2018-03-16T01:46:02.273Z,3.49
2018-03-16T01:47:02.442Z,3.52
2018-03-16T01:48:02.567Z,3.44
2018-03-16T01:49:02.716Z,3.61
2018-03-16T01:50:02.860Z,3.57
2018-03-16T01:51:03.009Z,3.43
2018-03-16T01:52:03.157Z,3.53
2018-03-16T01:53:03.305Z,3.53
2018-03-16T01:54:03.450Z,3.49
2018-03-16T01:55:03.599Z,3.47
2018-03-16T01:56:03.746Z,3.46
2018-03-16T01:57:03.895Z,3.25
2018-03-16T01:58:04.042Z,3.36
2018-03-16T01:59:04.191Z,3.34
2018-03-16T02:00:04.338Z,3.36
2018-03-16T02:01:04.485Z,3.33
2018-03-16T02:02:04.633Z,3.25
2018-03-16T02:03:04.779Z,3.24
2018-03-16T02:04:04.931Z,3.07
2018-03-16T02:05:05.076Z,3.07
2018-03-16T02:06:05.222Z,3.09
2018-03-16T02:07:05.369Z,3.10
2018-03-16T02:08:05.515Z,3.12
2018-03-16T02:09:05.664Z,3.06
2018-03-16T02:10:05.808Z,3.09
2018-03-16T02:11:05.957Z,3.15
2018-03-16T02:12:06.107Z,3.21
2018-03-16T02:13:06.252Z,3.16
2018-03-16T02:14:06.400Z,3.16
2018-03-16T02:15:06.545Z,3.21
2018-03-16T02:16:06.683Z,3.20
2018-03-16T02:17:06.829Z,3.07
2018-03-16T02:18:06.976Z,3.18
2018-03-16T02:19:07.124Z,3.18
2018-03-16T02:20:07.273Z,3.10
2018-03-16T02:21:07.418Z,3.05
2018-03-16T02:22:07.565Z,3.05
2018-03-16T02:23:07.711Z,3.06
2018-03-16T02:24:07.859Z,3.06
2018-03-16T02:25:08.006Z,3.10
2018-03-16T02:26:08.150Z,3.07
2018-03-16T02:27:08.297Z,3.02
2018-03-16T02:28:08.445Z,3.05
2018-03-16T02:29:08.590Z,3.07
2018-03-16T02:30:08.740Z,3.12
2018-03-16T02:31:08.884Z,3.06
2018-03-16T02:32:09.035Z,3.07
2018-03-16T02:33:09.180Z,2.97
2018-03-16T02:34:09.327Z,2.91
2018-03-16T02:35:09.472Z,2.91
2018-03-16T02:36:09.622Z,2.88
2018-03-16T02:37:09.769Z,3.06
2018-03-16T02:38:09.915Z,3.02
2018-03-16T02:39:10.061Z,2.94
2018-03-16T02:40:10.205Z,2.92
2018-03-16T02:41:10.350Z,2.95
2018-03-16T02:42:10.500Z,2.89
2018-03-16T02:43:10.646Z,2.89
2018-03-16T02:44:10.793Z,2.87
2018-03-16T02:45:10.940Z,2.85
2018-03-16T02:46:11.083Z,2.77
2018-03-16T02:47:11.229Z,2.76
2018-03-16T02:48:11.376Z,2.84
2018-03-16T02:49:11.525Z,2.76
2018-03-16T02:50:11.673Z,2.79
2018-03-16T02:51:11.819Z,2.71
2018-03-16T02:52:11.975Z,2.66
2018-03-16T02:53:12.111Z,2.63
2018-03-16T02:54:12.260Z,2.67
2018-03-16T02:55:12.409Z,2.63
2018-03-16T02:56:12.556Z,2.66
2018-03-16T02:57:12.705Z,2.69
2018-03-16T02:58:12.848Z,2.67
2018-03-16T02:59:12.998Z,2.70
2018-03-16T03:00:13.139Z,2.67
2018-03-16T03:01:13.291Z,2.61
2018-03-16T03:02:13.436Z,2.63
2018-03-16T03:03:13.582Z,2.63
2018-03-16T03:04:13.759Z,2.63
2018-03-16T03:05:13.873Z,2.67
2018-03-16T03:06:14.020Z,2.63
2018-03-16T03:07:14.166Z,2.58
2018-03-16T03:08:14.315Z,2.64
2018-03-16T03:09:14.462Z,2.55
2018-03-16T03:10:14.606Z,2.61
2018-03-16T03:11:14.754Z,2.69
2018-03-16T03:12:14.904Z,2.63
2018-03-16T03:13:15.046Z,2.70
2018-03-16T03:14:15.194Z,2.69
2018-03-16T03:15:15.340Z,2.66
2018-03-16T03:16:15.486Z,2.70
2018-03-16T03:17:15.631Z,2.61
2018-03-16T03:18:15.778Z,2.66
2018-03-16T03:19:15.927Z,2.58
2018-03-16T03:20:16.074Z,2.56
2018-03-16T03:21:16.222Z,2.56
2018-03-16T03:22:16.369Z,2.55
2018-03-16T03:23:16.512Z,2.55
2018-03-16T03:24:16.659Z,2.63
2018-03-16T03:25:16.804Z,2.56
2018-03-16T03:26:16.950Z,2.58
2018-03-16T03:27:17.097Z,2.53
2018-03-16T03:28:17.244Z,2.55
2018-03-16T03:29:17.392Z,2.52
2018-03-16T03:30:17.540Z,2.52
2018-03-16T03:31:17.688Z,2.51
2018-03-16T03:32:17.830Z,2.53
2018-03-16T03:33:17.974Z,2.53
2018-03-16T03:34:18.174Z,2.38
2018-03-16T03:35:18.276Z,2.51
2018-03-16T03:36:18.423Z,2.48
2018-03-16T03:37:18.571Z,2.37
2018-03-16T03:38:18.717Z,2.35
2018-03-16T03:39:18.867Z,2.40
2018-03-16T03:40:19.011Z,2.44
2018-03-16T03:41:19.159Z,2.44
2018-03-16T03:42:19.308Z,2.40
2018-03-16T03:43:19.456Z,2.31
2018-03-16T03:44:19.604Z,2.44
2018-03-16T03:45:19.748Z,2.41
2018-03-16T03:46:19.895Z,2.27
2018-03-16T03:47:20.039Z,2.37
2018-03-16T03:48:20.188Z,2.37
2018-03-16T03:49:20.333Z,2.41
2018-03-16T03:50:20.478Z,2.35
2018-03-16T03:51:20.624Z,2.38
2018-03-16T03:52:20.772Z,2.31
2018-03-16T03:53:20.918Z,2.27
2018-03-16T03:54:21.064Z,2.34
2018-03-16T03:55:21.213Z,2.23
2018-03-16T03:56:21.361Z,2.30
2018-03-16T03:57:21.508Z,2.19
2018-03-16T03:58:21.654Z,2.30
2018-03-16T03:59:21.802Z,2.31
2018-03-16T04:00:21.948Z,2.23
2018-03-16T04:01:22.093Z,2.31
2018-03-16T04:02:22.241Z,2.33
2018-03-16T04:03:22.389Z,2.26
2018-03-16T04:04:22.537Z,2.16
2018-03-16T04:05:22.681Z,2.20
2018-03-16T04:06:22.827Z,2.13
2018-03-16T04:07:22.973Z,2.17
2018-03-16T04:08:23.119Z,2.16
2018-03-16T04:09:23.265Z,2.15
2018-03-16T04:10:23.410Z,2.26
2018-03-16T04:11:23.554Z,2.23
2018-03-16T04:12:23.702Z,2.16
2018-03-16T04:13:23.846Z,2.15
2018-03-16T04:14:23.993Z,2.12
2018-03-16T04:15:24.139Z,2.16
2018-03-16T04:16:24.286Z,2.04
2018-03-16T04:17:24.436Z,2.12
2018-03-16T04:18:24.597Z,2.09
2018-03-16T04:19:24.718Z,2.12
2018-03-16T04:20:24.865Z,2.17
2018-03-16T04:21:25.012Z,2.13
2018-03-16T04:22:25.160Z,2.17
2018-03-16T04:23:25.313Z,2.06
2018-03-16T04:24:25.455Z,2.17
2018-03-16T04:25:25.607Z,2.17
2018-03-16T04:26:25.750Z,2.09
2018-03-16T04:27:25.898Z,2.15
2018-03-16T04:28:26.047Z,2.12
2018-03-16T04:29:26.190Z,2.10
2018-03-16T04:30:26.335Z,2.13
2018-03-16T04:31:26.483Z,2.10
2018-03-16T04:32:26.628Z,2.09
2018-03-16T04:33:26.777Z,2.09
2018-03-16T04:34:26.924Z,2.09
2018-03-16T04:35:27.071Z,2.06
2018-03-16T04:36:27.219Z,2.06
2018-03-16T04:37:27.367Z,1.97
2018-03-16T04:38:27.510Z,2.06
2018-03-16T04:39:27.658Z,2.02
2018-03-16T04:40:27.804Z,2.04
2018-03-16T04:41:27.949Z,2.04
2018-03-16T04:42:28.095Z,2.02
2018-03-16T04:43:28.299Z,2.10
2018-03-16T04:44:28.388Z,2.10
2018-03-16T04:45:28.535Z,2.16
2018-03-16T04:46:28.680Z,2.02
2018-03-16T04:47:28.824Z,2.06
2018-03-16T04:48:28.973Z,2.09
2018-03-16T04:49:29.117Z,1.99
2018-03-16T04:50:29.265Z,2.01
2018-03-16T04:51:29.408Z,1.93
2018-03-16T04:52:29.556Z,1.97
2018-03-16T04:53:29.701Z,1.99
2018-03-16T04:54:29.849Z,2.01
2018-03-16T04:55:29.993Z,2.08
2018-03-16T04:56:30.140Z,2.04
2018-03-16T04:57:30.287Z,1.99
2018-03-16T04:58:30.436Z,2.06
2018-03-16T04:59:30.583Z,2.13
2018-03-16T05:00:30.728Z,2.09
2018-03-16T05:01:30.869Z,2.02
2018-03-16T05:02:31.015Z,2.02
2018-03-16T05:03:31.164Z,2.06
2018-03-16T05:04:31.309Z,2.12
2018-03-16T05:05:31.455Z,2.04
2018-03-16T05:06:31.602Z,2.04
2018-03-16T05:07:31.750Z,2.04
2018-03-16T05:08:31.897Z,2.09
2018-03-16T05:09:32.041Z,2.04
2018-03-16T05:10:32.187Z,1.98
2018-03-16T05:11:32.333Z,1.90
2018-03-16T05:12:32.480Z,1.97
2018-03-16T05:13:32.624Z,1.90
2018-03-16T05:14:32.773Z,1.93
2018-03-16T05:15:32.919Z,1.93
2018-03-16T05:16:33.064Z,1.89
2018-03-16T05:17:33.212Z,1.91
2018-03-16T05:18:33.360Z,2.04
2018-03-16T05:19:33.506Z,1.90
2018-03-16T05:20:33.651Z,1.87
2018-03-16T05:21:33.799Z,1.73
2018-03-16T05:22:33.946Z,1.78
2018-03-16T05:23:34.091Z,1.89
2018-03-16T05:24:34.236Z,1.72
2018-03-16T05:25:34.383Z,1.91
2018-03-16T05:26:34.530Z,1.87
2018-03-16T05:27:34.676Z,1.79
2018-03-16T05:28:34.823Z,1.80
2018-03-16T05:29:34.969Z,1.75
2018-03-16T05:30:35.119Z,1.69
2018-03-16T05:31:35.264Z,1.76
2018-03-16T05:32:35.410Z,1.75
2018-03-16T05:33:35.562Z,1.72
2018-03-16T05:34:35.708Z,1.75
2018-03-16T05:35:35.855Z,1.71
2018-03-16T05:36:36.001Z,1.75
2018-03-16T05:37:36.146Z,1.78
2018-03-16T05:38:36.293Z,1.71
2018-03-16T05:39:36.439Z,1.79
2018-03-16T05:40:36.586Z,1.76
2018-03-16T05:41:36.732Z,1.73
2018-03-16T05:42:36.879Z,1.73
2018-03-16T05:43:37.026Z,1.65
2018-03-16T05:44:37.171Z,1.72
2018-03-16T05:45:37.314Z,1.69
2018-03-16T05:46:37.457Z,1.73
2018-03-16T05:47:37.606Z,1.71
2018-03-16T05:48:37.753Z,1.73
2018-03-16T05:49:37.950Z,1.57
2018-03-16T05:50:38.061Z,1.62
2018-03-16T05:51:38.199Z,1.69
2018-03-16T05:52:38.360Z,1.72
2018-03-16T05:53:38.497Z,1.68
2018-03-16T05:54:38.623Z,1.65
2018-03-16T05:55:38.753Z,1.69
2018-03-16T05:56:38.905Z,1.57
2018-03-16T05:57:39.052Z,1.71
2018-03-16T05:58:39.185Z,1.68
2018-03-16T05:59:39.332Z,1.75
2018-03-16T06:00:39.478Z,1.61
2018-03-16T06:01:39.626Z,1.58
2018-03-16T06:02:39.775Z,1.71
2018-03-16T06:03:39.920Z,1.58
2018-03-16T06:04:40.096Z,1.69
2018-03-16T06:05:40.218Z,1.60
2018-03-16T06:06:40.367Z,1.76
2018-03-16T06:07:40.513Z,1.64
2018-03-16T06:08:40.658Z,1.65
2018-03-16T06:09:40.806Z,1.72
2018-03-16T06:10:40.950Z,1.68
2018-03-16T06:11:41.102Z,1.68
2018-03-16T06:12:41.243Z,1.62
2018-03-16T06:13:41.389Z,1.68
2018-03-16T06:14:41.535Z,1.72
2018-03-16T06:15:41.682Z,1.68
2018-03-16T06:16:41.827Z,1.69
2018-03-16T06:17:41.975Z,1.60
2018-03-16T06:18:42.123Z,1.57
2018-03-16T06:19:42.271Z,1.57
2018-03-16T06:20:42.417Z,1.64
2018-03-16T06:21:42.563Z,1.58
2018-03-16T06:22:42.709Z,1.57
2018-03-16T06:23:42.871Z,1.65
2018-03-16T06:24:43.004Z,1.68
2018-03-16T06:25:43.152Z,1.69
2018-03-16T06:26:43.300Z,1.76
2018-03-16T06:27:43.445Z,1.62
2018-03-16T06:28:43.590Z,1.69
2018-03-16T06:29:43.734Z,1.58
2018-03-16T06:30:43.876Z,1.57
2018-03-16T06:31:44.023Z,1.69
2018-03-16T06:32:44.169Z,1.72
2018-03-16T06:33:44.314Z,1.68
2018-03-16T06:34:44.464Z,1.68
2018-03-16T06:35:44.609Z,1.76
2018-03-16T06:36:44.755Z,1.75
2018-03-16T06:37:44.902Z,1.71
2018-03-16T06:38:45.048Z,1.58
2018-03-16T06:39:45.196Z,1.68
2018-03-16T06:40:45.339Z,1.61
2018-03-16T06:41:45.488Z,1.69
2018-03-16T06:42:45.634Z,1.71
2018-03-16T06:43:45.780Z,1.65
2018-03-16T06:44:46.028Z,1.62
2018-03-16T06:45:46.073Z,1.72
2018-03-16T06:46:46.220Z,1.65
2018-03-16T06:47:46.369Z,1.55
2018-03-16T06:48:46.514Z,1.61
2018-03-16T06:49:46.660Z,1.62
2018-03-16T06:50:46.803Z,1.55
2018-03-16T06:51:46.952Z,1.57
2018-03-16T06:52:47.096Z,1.69
2018-03-16T06:53:47.232Z,1.71
2018-03-16T06:54:47.378Z,1.65
2018-03-16T06:55:47.524Z,1.55
2018-03-16T06:56:47.671Z,1.68
2018-03-16T06:57:47.820Z,1.71
2018-03-16T06:58:47.958Z,1.73
2018-03-16T06:59:48.100Z,1.71
2018-03-16T07:00:48.247Z,1.68
2018-03-16T07:01:48.391Z,1.73
2018-03-16T07:02:48.538Z,1.71
2018-03-16T07:03:48.684Z,1.75
2018-03-16T07:04:48.830Z,1.78
2018-03-16T07:05:48.978Z,1.65
2018-03-16T07:06:49.126Z,1.72
2018-03-16T07:07:49.270Z,1.68
2018-03-16T07:08:49.418Z,1.65
2018-03-16T07:09:49.564Z,1.69
2018-03-16T07:10:49.708Z,1.80
2018-03-16T07:11:49.855Z,1.69
2018-03-16T07:12:50.000Z,1.79
2018-03-16T07:13:50.155Z,1.85
2018-03-16T07:14:50.297Z,1.65
2018-03-16T07:15:50.445Z,1.78
2018-03-16T07:16:50.592Z,1.72
2018-03-16T07:17:50.743Z,1.76
2018-03-16T07:18:50.886Z,1.71
2018-03-16T07:19:51.034Z,1.80
2018-03-16T07:20:51.179Z,1.79
2018-03-16T07:21:51.334Z,1.89
2018-03-16T07:22:51.472Z,1.83
2018-03-16T07:23:51.617Z,1.73
2018-03-16T07:24:51.767Z,1.82
2018-03-16T07:25:51.911Z,1.76
2018-03-16T07:26:52.059Z,1.76
2018-03-16T07:27:52.195Z,1.76
2018-03-16T07:28:52.347Z,1.64
2018-03-16T07:29:52.488Z,1.75
2018-03-16T07:30:52.684Z,1.72
2018-03-16T07:31:52.767Z,1.76
2018-03-16T07:32:52.915Z,1.78
2018-03-16T07:33:53.060Z,1.78
2018-03-16T07:34:53.207Z,1.68
2018-03-16T07:35:53.351Z,1.80
2018-03-16T07:36:53.499Z,1.78
2018-03-16T07:37:53.643Z,1.79
2018-03-16T07:38:53.791Z,1.73
2018-03-16T07:39:53.936Z,1.83
2018-03-16T07:40:54.086Z,1.91
2018-03-16T07:41:54.230Z,1.93
2018-03-16T07:42:54.394Z,1.91
2018-03-16T07:43:54.515Z,1.89
2018-03-16T07:44:54.665Z,1.91
2018-03-16T07:45:54.814Z,1.87
2018-03-16T07:46:54.963Z,1.80
2018-03-16T07:47:55.106Z,2.01
2018-03-16T07:48:55.255Z,2.01
2018-03-16T07:49:55.400Z,1.97
2018-03-16T07:50:55.547Z,2.06
2018-03-16T07:51:55.691Z,2.08
2018-03-16T07:52:55.837Z,2.09
2018-03-16T07:53:55.992Z,2.17
2018-03-16T07:54:56.136Z,2.09
2018-03-16T07:55:56.285Z,2.16
2018-03-16T07:56:56.438Z,2.31
2018-03-16T07:57:56.577Z,2.19
2018-03-16T07:58:56.723Z,2.15
2018-03-16T07:59:56.881Z,2.30
2018-03-16T08:00:57.012Z,2.33
2018-03-16T08:01:57.156Z,2.34
2018-03-16T08:02:57.303Z,2.48
2018-03-16T08:03:57.449Z,2.48
2018-03-16T08:04:57.595Z,2.44
2018-03-16T08:05:57.747Z,2.44
2018-03-16T08:06:57.894Z,2.59
2018-03-16T08:07:58.041Z,2.67
2018-03-16T08:08:58.185Z,2.67
2018-03-16T08:09:58.332Z,2.61
2018-03-16T08:10:58.480Z,2.67
2018-03-16T08:11:58.627Z,2.63
2018-03-16T08:12:58.777Z,2.64
2018-03-16T08:13:58.920Z,2.63
2018-03-16T08:14:59.069Z,2.73
2018-03-16T08:15:59.215Z,2.58
2018-03-16T08:16:59.361Z,2.51
2018-03-16T08:17:59.509Z,2.48
2018-03-16T08:18:59.679Z,2.51
2018-03-16T08:19:59.801Z,2.55
2018-03-16T08:20:59.953Z,2.44
2018-03-16T08:22:00.102Z,2.51
2018-03-16T08:23:00.250Z,2.48
2018-03-16T08:24:00.398Z,2.45
2018-03-16T08:25:00.543Z,2.53
2018-03-16T08:26:00.692Z,2.53
2018-03-16T08:27:00.841Z,2.64
2018-03-16T08:28:00.998Z,2.66
2018-03-16T08:29:01.132Z,2.71
2018-03-16T08:30:01.281Z,2.76
2018-03-16T08:31:01.428Z,2.73
2018-03-16T08:32:01.659Z,2.70
2018-03-16T08:33:01.716Z,2.70
2018-03-16T08:34:01.901Z,2.64
2018-03-16T08:35:02.016Z,2.79
2018-03-16T08:36:02.156Z,2.66
2018-03-16T08:37:02.302Z,2.64
2018-03-16T08:38:02.450Z,2.67
2018-03-16T08:39:02.596Z,2.71
2018-03-16T08:40:02.743Z,2.77
2018-03-16T08:41:02.891Z,2.77
2018-03-16T08:42:03.038Z,2.69
2018-03-16T08:43:03.183Z,2.66
2018-03-16T08:44:03.333Z,2.71
2018-03-16T08:45:03.482Z,2.69
2018-03-16T08:46:03.686Z,2.63
2018-03-16T08:47:03.775Z,2.61
2018-03-16T08:48:03.921Z,2.59
2018-03-16T08:49:04.068Z,2.61
2018-03-16T08:50:04.215Z,2.64
2018-03-16T08:51:04.362Z,2.64
2018-03-16T08:52:04.502Z,2.66
2018-03-16T08:53:04.648Z,2.61
2018-03-16T08:54:04.796Z,2.59
2018-03-16T08:55:04.942Z,2.66
2018-03-16T08:56:05.093Z,2.64
2018-03-16T08:57:05.242Z,2.64
2018-03-16T08:58:05.388Z,2.56
2018-03-16T08:59:05.533Z,2.71
2018-03-16T09:00:05.682Z,2.66
2018-03-16T09:01:05.823Z,2.61
2018-03-16T09:02:05.975Z,2.63
2018-03-16T09:03:06.115Z,2.67
2018-03-16T09:04:06.261Z,2.70
2018-03-16T09:05:06.412Z,2.64
2018-03-16T09:06:06.561Z,2.67
2018-03-16T09:07:06.706Z,2.69
2018-03-16T09:08:06.861Z,2.61
2018-03-16T09:09:07.023Z,2.61
2018-03-16T09:10:07.168Z,2.73
2018-03-16T09:11:07.317Z,2.67
2018-03-16T09:12:07.461Z,2.70
2018-03-16T09:13:07.610Z,2.66
2018-03-16T09:14:07.757Z,2.61
2018-03-16T09:15:07.905Z,2.69
2018-03-16T09:16:08.092Z,2.55
2018-03-16T09:17:08.196Z,2.38
2018-03-16T09:18:08.345Z,2.41
2018-03-16T09:19:08.490Z,2.33
2018-03-16T09:20:08.637Z,2.28
2018-03-16T09:21:08.785Z,2.34
2018-03-16T09:22:08.931Z,2.38
2018-03-16T09:23:09.081Z,2.38
2018-03-16T09:24:09.229Z,2.49
2018-03-16T09:25:09.376Z,2.55
2018-03-16T09:26:09.522Z,2.56
2018-03-16T09:27:09.669Z,2.55
2018-03-16T09:28:09.814Z,2.59
2018-03-16T09:29:09.961Z,2.64
2018-03-16T09:30:10.108Z,2.66
2018-03-16T09:31:10.255Z,2.77
2018-03-16T09:32:10.402Z,2.76
2018-03-16T09:33:10.549Z,2.79
2018-03-16T09:34:10.696Z,2.92
2018-03-16T09:35:10.843Z,2.89
2018-03-16T09:36:10.989Z,2.81
2018-03-16T09:37:11.137Z,2.87
2018-03-16T09:38:11.282Z,2.85
2018-03-16T09:39:11.426Z,2.88
2018-03-16T09:40:11.571Z,3.09
2018-03-16T09:41:11.720Z,3.05
2018-03-16T09:42:11.871Z,2.92
2018-03-16T09:43:12.017Z,2.92
2018-03-16T09:44:12.165Z,2.81
2018-03-16T09:45:12.317Z,2.84
2018-03-16T09:46:12.464Z,2.82
2018-03-16T09:47:12.611Z,2.92
2018-03-16T09:48:12.755Z,2.98
2018-03-16T09:49:12.915Z,3.09
2018-03-16T09:50:13.064Z,3.21
2018-03-16T09:51:13.210Z,3.27
2018-03-16T09:52:13.361Z,3.13
2018-03-16T09:53:13.508Z,3.25
2018-03-16T09:54:13.654Z,3.16
2018-03-16T09:55:13.801Z,3.12
2018-03-16T09:56:13.951Z,2.98
2018-03-16T09:57:14.151Z,2.95
2018-03-16T09:58:14.254Z,2.94
2018-03-16T09:59:14.397Z,2.94
2018-03-16T10:00:14.543Z,2.84
2018-03-16T10:01:14.690Z,2.89
2018-03-16T10:02:14.839Z,2.97
2018-03-16T10:03:14.989Z,3.05
2018-03-16T10:04:15.136Z,3.05
2018-03-16T10:05:15.281Z,2.95
2018-03-16T10:06:15.428Z,2.91
2018-03-16T10:07:15.581Z,2.92
2018-03-16T10:08:15.730Z,3.02
2018-03-16T10:09:15.877Z,2.87
2018-03-16T10:10:16.023Z,2.87
2018-03-16T10:11:16.177Z,2.87
2018-03-16T10:12:16.343Z,2.85
2018-03-16T10:13:16.476Z,2.81
2018-03-16T10:14:16.620Z,2.64
2018-03-16T10:15:16.769Z,2.56
2018-03-16T10:16:16.916Z,2.63
2018-03-16T10:17:17.063Z,2.66
2018-03-16T10:18:17.216Z,2.73
2018-03-16T10:19:17.357Z,2.74
2018-03-16T10:20:17.503Z,2.76
2018-03-16T10:21:17.651Z,2.88
2018-03-16T10:22:17.799Z,2.94
2018-03-16T10:23:17.949Z,2.97
2018-03-16T10:24:18.099Z,2.92
2018-03-16T10:25:18.246Z,3.05
2018-03-16T10:26:18.391Z,2.94
2018-03-16T10:27:18.538Z,2.88
2018-03-16T10:28:18.686Z,2.89
2018-03-16T10:29:18.837Z,2.84
2018-03-16T10:30:19.016Z,2.84
2018-03-16T10:31:19.128Z,2.85
2018-03-16T10:32:19.274Z,2.89
2018-03-16T10:33:19.422Z,2.94
2018-03-16T10:34:19.569Z,2.85
2018-03-16T10:35:19.716Z,2.82
2018-03-16T10:36:19.860Z,2.73
2018-03-16T10:37:20.007Z,2.77
2018-03-16T10:38:20.149Z,2.73
2018-03-16T10:39:20.300Z,2.89
2018-03-16T10:40:20.445Z,2.92
2018-03-16T10:41:20.592Z,2.91
2018-03-16T10:42:20.742Z,2.88
2018-03-16T10:43:20.887Z,2.74
2018-03-16T10:44:21.032Z,2.76
2018-03-16T10:45:21.182Z,2.91
2018-03-16T10:46:21.328Z,2.88
2018-03-16T10:47:21.477Z,2.89
2018-03-16T10:48:21.634Z,2.91
2018-03-16T10:49:21.771Z,2.92
2018-03-16T10:50:21.919Z,2.71
2018-03-16T10:51:22.077Z,2.74
2018-03-16T10:52:22.217Z,2.89
2018-03-16T10:53:22.364Z,2.81
2018-03-16T10:54:22.510Z,2.69
2018-03-16T10:55:22.657Z,2.73
2018-03-16T10:56:22.806Z,2.67
2018-03-16T10:57:22.953Z,2.69
2018-03-16T10:58:23.112Z,2.79
2018-03-16T10:59:23.249Z,2.74
2018-03-16T11:00:23.397Z,2.64
2018-03-16T11:01:23.546Z,2.63
2018-03-16T11:02:23.692Z,2.73
2018-03-16T11:03:23.841Z,2.70
2018-03-16T11:04:23.987Z,2.67
2018-03-16T11:05:24.133Z,2.67
2018-03-16T11:06:24.281Z,2.77
2018-03-16T11:07:24.430Z,2.74
2018-03-16T11:08:24.578Z,2.70
2018-03-16T11:09:24.805Z,2.74
2018-03-16T11:10:24.874Z,2.73
2018-03-16T11:11:25.022Z,2.70
2018-03-16T11:12:25.167Z,2.56
2018-03-16T11:13:25.312Z,2.63
2018-03-16T11:14:25.460Z,2.44
2018-03-16T11:15:25.607Z,2.48
2018-03-16T11:16:25.753Z,2.37
2018-03-16T11:17:25.898Z,2.53
2018-03-16T11:18:26.048Z,2.38
2018-03-16T11:19:26.198Z,2.38
2018-03-16T11:20:26.347Z,2.28
2018-03-16T11:21:26.492Z,2.26
2018-03-16T11:22:26.638Z,2.28
2018-03-16T11:23:26.828Z,2.31
2018-03-16T11:24:26.931Z,2.40
2018-03-16T11:25:27.076Z,2.41
2018-03-16T11:26:27.221Z,2.41
2018-03-16T11:27:27.362Z,2.37
2018-03-16T11:28:27.516Z,2.31
2018-03-16T11:29:27.669Z,2.15
2018-03-16T11:30:27.812Z,2.10
2018-03-16T11:31:27.964Z,2.30
2018-03-16T11:32:28.110Z,2.31
2018-03-16T11:33:28.256Z,2.22
2018-03-16T11:34:28.407Z,2.22
2018-03-16T11:35:28.552Z,2.31
2018-03-16T11:36:28.698Z,2.26
2018-03-16T11:37:28.871Z,2.38
2018-03-16T11:38:28.995Z,2.17
2018-03-16T11:39:29.141Z,2.33
2018-03-16T11:40:29.287Z,2.27
2018-03-16T11:41:29.433Z,2.44
2018-03-16T11:42:29.582Z,2.45
2018-03-16T11:43:29.730Z,2.40
2018-03-16T11:44:29.877Z,2.46
2018-03-16T11:45:30.024Z,2.41
2018-03-16T11:46:30.215Z,2.45
2018-03-16T11:47:30.311Z,2.34
2018-03-16T11:48:30.448Z,2.40
2018-03-16T11:49:30.589Z,2.33
2018-03-16T11:50:30.736Z,2.49
2018-03-16T11:51:30.881Z,2.45
2018-03-16T11:52:31.028Z,2.53
2018-03-16T11:53:31.174Z,2.53
2018-03-16T11:54:31.319Z,2.55
2018-03-16T11:55:31.468Z,2.58
2018-03-16T11:56:31.616Z,2.45
2018-03-16T11:57:31.761Z,2.59
2018-03-16T11:58:31.907Z,2.48
2018-03-16T11:59:32.054Z,2.66
2018-03-16T12:00:32.201Z,2.58
2018-03-16T12:01:32.353Z,2.51
2018-03-16T12:02:32.498Z,2.59
2018-03-16T12:03:32.643Z,2.59
2018-03-16T12:04:32.791Z,2.59
2018-03-16T12:05:32.939Z,2.64
2018-03-16T12:06:33.087Z,2.66
2018-03-16T12:07:33.235Z,2.66
2018-03-16T12:08:33.431Z,2.67
2018-03-16T12:09:33.546Z,2.71
2018-03-16T12:10:33.669Z,2.76
2018-03-16T12:11:33.839Z,2.92
2018-03-16T12:12:33.954Z,2.95
2018-03-16T12:13:34.130Z,2.92
2018-03-16T12:14:34.243Z,2.82
2018-03-16T12:15:34.402Z,2.64
2018-03-16T12:16:34.612Z,2.55
2018-03-16T12:17:34.668Z,2.59
2018-03-16T12:18:34.815Z,2.64
2018-03-16T12:19:34.965Z,2.67
2018-03-16T12:20:35.112Z,2.61
2018-03-16T12:21:35.309Z,2.69
2018-03-16T12:22:35.414Z,2.61
2018-03-16T12:23:35.555Z,2.61
2018-03-16T12:24:35.708Z,2.64
2018-03-16T12:25:35.858Z,2.69
2018-03-16T12:26:36.003Z,2.64
2018-03-16T12:27:36.153Z,2.67
2018-03-16T12:28:49.574Z,2.64
2018-03-16T12:29:36.449Z,2.63
2018-03-16T12:30:36.601Z,2.53
2018-03-16T12:31:36.747Z,2.51
2018-03-16T12:32:36.900Z,2.59
2018-03-16T12:33:37.041Z,2.64
2018-03-16T12:34:37.236Z,2.64
2018-03-16T12:35:37.328Z,2.66
2018-03-16T12:36:37.478Z,2.56
2018-03-16T12:37:37.625Z,2.61
2018-03-16T12:38:37.772Z,2.71
2018-03-16T12:39:37.919Z,2.77
2018-03-16T12:40:38.077Z,2.66
2018-03-16T12:41:38.212Z,2.81
2018-03-16T12:42:38.358Z,2.74
2018-03-16T12:43:38.504Z,2.73
2018-03-16T12:44:38.650Z,2.70
2018-03-16T12:45:38.802Z,2.73
2018-03-16T12:46:38.945Z,2.85
2018-03-16T12:47:39.093Z,2.85
2018-03-16T12:48:39.241Z,2.85
2018-03-16T12:49:39.389Z,2.85
2018-03-16T12:50:39.560Z,2.81
2018-03-16T12:51:42.267Z,2.91
2018-03-16T12:52:39.859Z,2.87
2018-03-16T12:53:40.002Z,2.81
2018-03-16T12:54:40.149Z,2.64
2018-03-16T12:55:40.297Z,2.64
2018-03-16T12:56:40.442Z,2.69
2018-03-16T12:57:40.599Z,2.67
2018-03-16T12:58:40.746Z,2.74
2018-03-16T12:59:40.897Z,2.79
2018-03-16T13:00:41.044Z,2.94
2018-03-16T13:01:41.194Z,2.91
2018-03-16T13:02:41.377Z,2.98
2018-03-16T13:03:41.499Z,2.91
2018-03-16T13:04:41.651Z,2.88
2018-03-16T13:05:41.799Z,3.09
2018-03-16T13:06:41.948Z,3.10
2018-03-16T13:07:42.093Z,3.06
2018-03-16T13:08:42.238Z,2.88
2018-03-16T13:09:42.388Z,2.77
2018-03-16T13:10:42.538Z,2.66
2018-03-16T13:11:42.685Z,2.73
2018-03-16T13:12:42.833Z,2.71
2018-03-16T13:13:42.990Z,2.63
2018-03-16T13:14:43.122Z,2.79
2018-03-16T13:15:43.263Z,2.71
2018-03-16T13:16:43.409Z,2.59
2018-03-16T13:17:43.568Z,2.63
2018-03-16T13:18:43.715Z,2.66
2018-03-16T13:19:43.867Z,2.70
2018-03-16T13:20:44.016Z,2.70